Weslaco, TX

7:58 AM CDT on May 28, 2017 (GMT -0500)
Weslaco

Weather History for KT65 - February, 2013

Change the Weather History Date:

Sunday, February 10, 2013

  Actual Average (KMFE) Record (KMFE)
Temperature  
Mean Temperature 82 °F -  
Max Temperature 94 °F 72 °F 96 °F (2013)
Min Temperature 71 °F 52 °F 27 °F (1973)
Cooling Degree Days 18    
Growing Degree Days 32 (Base 50)    
Moisture  
Dew Point 66 °F    
Average Humidity 67    
Maximum Humidity 84    
Minimum Humidity 31    
Precipitation  
Precipitation 0.00 in - - ()
Sea Level Pressure  
Sea Level Pressure 29.79 in    
Wind  
Wind Speed 14 mph (SSE)    
Max Wind Speed 22 mph    
Max Gust Speed 29 mph    
Visibility 8 miles    
Events      
Averages and records for this station are not official NWS values.
T = Trace of Precipitation, MM = Missing Value Source: NWS Daily Summary

Daily Weather History Graph

Daily Weather History Graph

Search for Another Location

Airport or City:

Trip Planner

Search our weather history database for the weather conditions in past years. The results will help you decide how hot, cold, wet, or windy it might be!

Date:

Astronomy

Feb. 10, 2013 Rise Set
Actual Time 7:10 AM CST 6:21 PM CST
Civil Twilight 6:47 AM CST 6:45 PM CST
Nautical Twilight 6:19 AM CST 7:12 PM CST
Astronomical Twilight 5:52 AM CST 7:39 PM CST
Moon 7:08 AM CST (2/10) 7:03 PM CST (2/10)
Length of Visible Light 11h 58m
Length of Day
11h 10m
New Moon, 0% of the Moon is Illuminated
Feb 10
New Moon
Feb 17
First Quarter
Feb 25
Full
Mar 4
Last Quarter
Mar 11
New

Hourly Weather History & Observations

Time (CST) Temp. Heat Index Dew Point Humidity Pressure Visibility Wind Dir Wind Speed Gust Speed Precip Events Conditions
12:15 AM 73.6 °F - 67.5 °F 81% 29.80 in 10.0 mi South 16.1 mph 27.6 mph N/A   Mostly Cloudy
12:35 AM 73.8 °F - 67.5 °F 81% 29.79 in 10.0 mi South 17.3 mph 26.5 mph N/A   Mostly Cloudy
12:55 AM 74.1 °F - 67.5 °F 80% 29.79 in 10.0 mi South 16.1 mph 24.2 mph N/A   Overcast
1:15 AM 73.8 °F - 67.1 °F 80% 29.78 in 10.0 mi SSE 18.4 mph 24.2 mph N/A   Overcast
1:35 AM 73.6 °F - 67.3 °F 81% 29.78 in 7.0 mi SSE 16.1 mph 23.0 mph N/A   Mostly Cloudy
1:55 AM 73.2 °F - 67.1 °F 81% 29.77 in 7.0 mi South 12.7 mph 21.9 mph N/A   Mostly Cloudy
2:35 AM 73.4 °F - 67.1 °F 81% 29.77 in 7.0 mi South 15.0 mph 23.0 mph N/A   Overcast
3:15 AM 73.4 °F - 67.3 °F 81% 29.77 in 7.0 mi South 13.8 mph 19.6 mph N/A   Overcast
3:35 AM 73.8 °F - 67.1 °F 80% 29.77 in 7.0 mi South 13.8 mph 19.6 mph N/A   Overcast
3:55 AM 73.4 °F - 66.7 °F 80% 29.77 in 7.0 mi SSW 11.5 mph 16.1 mph N/A   Overcast
4:15 AM 73.4 °F - 66.6 °F 79% 29.77 in 7.0 mi SSW 11.5 mph 19.6 mph N/A   Overcast
4:35 AM 73.0 °F - 66.4 °F 80% 29.78 in 7.0 mi SSW 8.1 mph - N/A   Overcast
4:55 AM 72.5 °F - 66.2 °F 81% 29.78 in 7.0 mi SSW 8.1 mph - N/A   Mostly Cloudy
5:15 AM 72.1 °F - 66.2 °F 82% 29.77 in 7.0 mi South 12.7 mph 17.3 mph N/A   Scattered Clouds
5:35 AM 71.8 °F - 66.2 °F 83% 29.77 in 7.0 mi South 12.7 mph 16.1 mph N/A   Clear
5:55 AM 71.6 °F - 66.0 °F 82% 29.77 in 7.0 mi South 11.5 mph - N/A   Clear
6:15 AM 71.2 °F - 66.2 °F 84% 29.77 in 7.0 mi South 13.8 mph 18.4 mph N/A   Clear
6:35 AM 71.4 °F - 66.0 °F 83% 29.78 in 7.0 mi South 13.8 mph - N/A   Clear
6:55 AM 71.2 °F - 65.7 °F 82% 29.79 in 7.0 mi South 12.7 mph 19.6 mph N/A   Clear
7:15 AM 71.6 °F - 65.7 °F 81% 29.79 in 7.0 mi South 12.7 mph - N/A   Clear
7:35 AM 71.8 °F - 65.7 °F 81% 29.80 in 7.0 mi South 15.0 mph 23.0 mph N/A   Clear
7:55 AM 73.0 °F - 65.8 °F 78% 29.80 in 7.0 mi South 18.4 mph 27.6 mph N/A   Clear
8:15 AM 74.1 °F - 66.2 °F 76% 29.81 in 7.0 mi South 15.0 mph 24.2 mph N/A   Clear
8:35 AM 75.2 °F - 66.2 °F 73% 29.82 in 7.0 mi South 13.8 mph 26.5 mph N/A   Clear
8:55 AM 76.6 °F - 66.2 °F 70% 29.82 in 10.0 mi South 21.9 mph 27.6 mph N/A   Clear
9:15 AM 78.1 °F - 66.0 °F 66% 29.83 in 10.0 mi South 21.9 mph 28.8 mph N/A   Clear
9:35 AM 79.2 °F - 66.0 °F 64% 29.84 in 7.0 mi South 19.6 mph 27.6 mph N/A   Clear
10:15 AM 82.6 °F 84.5 °F 65.5 °F 56% 29.84 in 7.0 mi South 20.7 mph 28.8 mph N/A   Clear
10:35 AM 83.1 °F 85.0 °F 65.3 °F 55% 29.84 in 10.0 mi South 19.6 mph 27.6 mph N/A   Clear
10:55 AM 85.1 °F 86.9 °F 65.1 °F 51% 29.83 in 10.0 mi South 19.6 mph 26.5 mph N/A   Clear
11:15 AM 86.2 °F 87.9 °F 65.1 °F 49% 29.83 in 10.0 mi SSW 16.1 mph 28.8 mph N/A   Clear
11:35 AM 87.4 °F 89.1 °F 64.9 °F 47% 29.82 in 7.0 mi SSW 17.3 mph 27.6 mph N/A   Clear
11:55 AM 88.7 °F 90.1 °F 64.4 °F 44% 29.81 in 5.0 mi South 17.3 mph 23.0 mph N/A   Haze
12:15 PM 89.4 °F 90.5 °F 63.5 °F 42% 29.80 in 7.0 mi South 15.0 mph 25.3 mph N/A   Clear
12:35 PM 90.7 °F 91.7 °F 63.1 °F 40% 29.78 in 10.0 mi South 13.8 mph - N/A   Clear
12:55 PM 91.9 °F 92.9 °F 63.3 °F 38% 29.78 in 7.0 mi South 12.7 mph 19.6 mph N/A   Clear
1:15 PM 93.4 °F 93.5 °F 61.5 °F 34% 29.77 in 7.0 mi South 11.5 mph 17.3 mph N/A   Clear
1:35 PM 94.3 °F 94.1 °F 60.4 °F 32% 29.76 in 7.0 mi SSW 9.2 mph 17.3 mph N/A   Clear
1:55 PM 94.6 °F 94.3 °F 60.1 °F 31% 29.75 in 10.0 mi SSE 6.9 mph - N/A   Clear
2:15 PM 94.5 °F 94.0 °F 59.4 °F 31% 29.74 in 7.0 mi SSE 5.8 mph - N/A   Clear
2:35 PM 93.6 °F 96.4 °F 65.8 °F 40% 29.73 in 7.0 mi SSE 15.0 mph 18.4 mph N/A   Clear
2:55 PM 91.0 °F 93.4 °F 65.8 °F 43% 29.72 in 7.0 mi SSE 13.8 mph 19.6 mph N/A   Clear
3:15 PM 90.5 °F 93.3 °F 66.2 °F 45% 29.72 in 7.0 mi SSE 15.0 mph 18.4 mph N/A   Clear
3:55 PM 87.8 °F 90.0 °F 65.8 °F 48% 29.72 in 7.0 mi SSE 12.7 mph - N/A   Clear
4:15 PM 88.9 °F 91.0 °F 65.5 °F 46% 29.72 in 10.0 mi SE 10.4 mph - N/A   Clear
4:35 PM 88.2 °F 90.6 °F 66.2 °F 48% 29.72 in 10.0 mi SE 12.7 mph 18.4 mph N/A   Clear
4:55 PM 86.7 °F 89.6 °F 66.9 °F 52% 29.72 in 7.0 mi SE 16.1 mph - N/A   Clear
5:15 PM 85.5 °F 87.9 °F 66.4 °F 53% 29.73 in 7.0 mi SE 12.7 mph 17.3 mph N/A   Clear
5:35 PM 84.0 °F 86.3 °F 66.2 °F 55% 29.73 in 10.0 mi SE 11.5 mph 17.3 mph N/A   Clear
5:55 PM 82.4 °F 85.0 °F 67.1 °F 60% 29.73 in 10.0 mi SE 15.0 mph 19.6 mph N/A   Clear
6:15 PM 80.8 °F 83.2 °F 67.1 °F 63% 29.73 in 10.0 mi SE 11.5 mph 19.6 mph N/A   Clear
6:35 PM 79.7 °F - 67.1 °F 65% 29.74 in 10.0 mi SE 15.0 mph 21.9 mph N/A   Clear
6:55 PM 78.8 °F - 67.1 °F 67% 29.76 in 10.0 mi SE 11.5 mph 18.4 mph N/A   Clear
7:15 PM 77.9 °F - 67.3 °F 70% 29.77 in 10.0 mi SE 13.8 mph 17.3 mph N/A   Clear
7:35 PM 76.8 °F - 67.5 °F 73% 29.78 in 7.0 mi SSE 11.5 mph 21.9 mph N/A   Clear
7:55 PM 76.1 °F - 68.0 °F 76% 29.79 in 7.0 mi SE 8.1 mph - N/A   Clear
8:15 PM 75.4 °F - 67.8 °F 77% 29.80 in 7.0 mi SE 9.2 mph - N/A   Mostly Cloudy
8:35 PM 75.2 °F - 68.0 °F 78% 29.81 in 7.0 mi SE 4.6 mph - N/A   Overcast
8:55 PM 75.2 °F - 68.0 °F 78% 29.83 in 7.0 mi SSE 3.5 mph - N/A   Overcast
9:15 PM 75.2 °F - 68.0 °F 78% 29.83 in 7.0 mi SE 3.5 mph - N/A   Overcast
9:35 PM 75.2 °F - 68.0 °F 78% 29.84 in 7.0 mi Calm Calm - N/A   Overcast
9:55 PM 75.2 °F - 68.0 °F 78% 29.85 in 10.0 mi ENE 3.5 mph - N/A   Overcast
10:15 PM 75.0 °F - 68.0 °F 79% 29.86 in 10.0 mi ENE 3.5 mph - N/A   Overcast
10:35 PM 75.2 °F - 68.0 °F 78% 29.86 in 10.0 mi ENE 3.5 mph - N/A   Overcast
10:55 PM 74.8 °F - 68.0 °F 79% 29.86 in 10.0 mi Calm Calm - N/A   Overcast
11:15 PM 74.7 °F - 68.0 °F 80% 29.87 in 10.0 mi NE 3.5 mph - N/A   Overcast
11:35 PM 74.7 °F - 68.0 °F 80% 29.87 in 10.0 mi ENE 3.5 mph - N/A   Overcast
11:55 PM 71.8 °F - 63.5 °F 75% 29.88 in 7.0 mi North 8.1 mph - N/A   Overcast